sensor_id;sensor_type;location;lat;lon;timestamp;P1;durP1;ratioP1;P2;durP2;ratioP2
83556;SDS011;73523;55.740;13.276;2024-02-26T00:01:20;1.70;;;1.20;;
83556;SDS011;73523;55.740;13.276;2024-02-26T00:03:46;1.80;;;1.47;;
83556;SDS011;73523;55.740;13.276;2024-02-26T00:06:12;1.90;;;1.30;;
83556;SDS011;73523;55.740;13.276;2024-02-26T00:08:37;1.90;;;1.30;;
83556;SDS011;73523;55.740;13.276;2024-02-26T00:11:03;1.98;;;0.98;;
83556;SDS011;73523;55.740;13.276;2024-02-26T00:13:28;2.07;;;1.20;;
83556;SDS011;73523;55.740;13.276;2024-02-26T00:15:54;1.70;;;1.20;;
83556;SDS011;73523;55.740;13.276;2024-02-26T00:18:19;1.47;;;1.10;;
83556;SDS011;73523;55.740;13.276;2024-02-26T00:20:44;1.83;;;1.30;;
83556;SDS011;73523;55.740;13.276;2024-02-26T00:23:10;1.63;;;1.25;;
83556;SDS011;73523;55.740;13.276;2024-02-26T00:25:35;1.60;;;1.10;;
83556;SDS011;73523;55.740;13.276;2024-02-26T00:28:02;1.55;;;1.15;;
83556;SDS011;73523;55.740;13.276;2024-02-26T00:30:30;1.58;;;1.15;;
83556;SDS011;73523;55.740;13.276;2024-02-26T00:32:56;1.83;;;1.27;;
83556;SDS011;73523;55.740;13.276;2024-02-26T00:35:21;2.13;;;1.30;;
83556;SDS011;73523;55.740;13.276;2024-02-26T00:37:46;1.60;;;1.17;;
83556;SDS011;73523;55.740;13.276;2024-02-26T00:40:12;2.17;;;1.17;;
83556;SDS011;73523;55.740;13.276;2024-02-26T00:42:37;1.43;;;1.23;;
83556;SDS011;73523;55.740;13.276;2024-02-26T00:45:03;1.37;;;1.20;;
83556;SDS011;73523;55.740;13.276;2024-02-26T00:47:28;1.83;;;1.13;;
83556;SDS011;73523;55.740;13.276;2024-02-26T00:49:53;1.25;;;1.05;;
83556;SDS011;73523;55.740;13.276;2024-02-26T00:52:19;1.90;;;1.20;;
83556;SDS011;73523;55.740;13.276;2024-02-26T00:54:44;1.70;;;1.30;;
83556;SDS011;73523;55.740;13.276;2024-02-26T00:57:10;1.60;;;1.17;;
83556;SDS011;73523;55.740;13.276;2024-02-26T00:59:35;1.50;;;1.10;;
83556;SDS011;73523;55.740;13.276;2024-02-26T01:02:00;1.77;;;1.20;;
83556;SDS011;73523;55.740;13.276;2024-02-26T01:04:27;1.55;;;1.17;;
83556;SDS011;73523;55.740;13.276;2024-02-26T01:06:52;1.67;;;1.20;;
83556;SDS011;73523;55.740;13.276;2024-02-26T01:09:17;1.80;;;1.17;;
83556;SDS011;73523;55.740;13.276;2024-02-26T01:11:43;1.63;;;1.20;;
83556;SDS011;73523;55.740;13.276;2024-02-26T01:14:09;1.23;;;1.00;;
83556;SDS011;73523;55.740;13.276;2024-02-26T01:16:34;2.60;;;1.20;;
83556;SDS011;73523;55.740;13.276;2024-02-26T01:18:59;1.58;;;1.30;;
83556;SDS011;73523;55.740;13.276;2024-02-26T01:21:25;1.97;;;1.10;;
83556;SDS011;73523;55.740;13.276;2024-02-26T01:23:51;1.90;;;1.23;;
83556;SDS011;73523;55.740;13.276;2024-02-26T01:26:17;1.67;;;1.07;;
83556;SDS011;73523;55.740;13.276;2024-02-26T01:28:42;1.40;;;1.20;;
83556;SDS011;73523;55.740;13.276;2024-02-26T01:31:09;1.33;;;1.10;;
83556;SDS011;73523;55.740;13.276;2024-02-26T01:33:34;1.77;;;1.10;;
83556;SDS011;73523;55.740;13.276;2024-02-26T01:35:59;1.77;;;1.40;;
83556;SDS011;73523;55.740;13.276;2024-02-26T01:38:25;1.23;;;0.93;;
83556;SDS011;73523;55.740;13.276;2024-02-26T01:40:51;1.60;;;1.20;;
83556;SDS011;73523;55.740;13.276;2024-02-26T01:43:16;1.40;;;1.10;;
83556;SDS011;73523;55.740;13.276;2024-02-26T01:45:42;1.50;;;1.20;;
83556;SDS011;73523;55.740;13.276;2024-02-26T01:48:07;1.50;;;1.17;;
83556;SDS011;73523;55.740;13.276;2024-02-26T01:50:33;1.33;;;1.15;;
83556;SDS011;73523;55.740;13.276;2024-02-26T01:52:59;1.40;;;1.00;;
83556;SDS011;73523;55.740;13.276;2024-02-26T01:55:25;1.30;;;0.98;;
83556;SDS011;73523;55.740;13.276;2024-02-26T01:57:51;2.03;;;1.30;;
83556;SDS011;73523;55.740;13.276;2024-02-26T02:00:17;1.52;;;1.15;;
83556;SDS011;73523;55.740;13.276;2024-02-26T02:02:43;2.10;;;1.33;;
83556;SDS011;73523;55.740;13.276;2024-02-26T02:05:12;1.65;;;1.02;;
83556;SDS011;73523;55.740;13.276;2024-02-26T02:07:38;1.43;;;0.90;;
83556;SDS011;73523;55.740;13.276;2024-02-26T02:10:04;1.53;;;1.00;;
83556;SDS011;73523;55.740;13.276;2024-02-26T02:12:30;1.50;;;1.23;;
83556;SDS011;73523;55.740;13.276;2024-02-26T02:14:57;1.77;;;1.17;;
83556;SDS011;73523;55.740;13.276;2024-02-26T02:17:23;1.55;;;1.15;;
83556;SDS011;73523;55.740;13.276;2024-02-26T02:19:48;1.70;;;1.03;;
83556;SDS011;73523;55.740;13.276;2024-02-26T02:22:14;1.63;;;1.30;;
83556;SDS011;73523;55.740;13.276;2024-02-26T02:24:39;1.60;;;1.10;;
83556;SDS011;73523;55.740;13.276;2024-02-26T02:27:04;1.73;;;1.10;;
83556;SDS011;73523;55.740;13.276;2024-02-26T02:29:30;1.52;;;1.40;;
83556;SDS011;73523;55.740;13.276;2024-02-26T02:31:55;1.47;;;1.20;;
83556;SDS011;73523;55.740;13.276;2024-02-26T02:34:22;2.10;;;1.38;;
83556;SDS011;73523;55.740;13.276;2024-02-26T02:36:53;1.90;;;1.17;;
83556;SDS011;73523;55.740;13.276;2024-02-26T02:39:19;1.60;;;1.13;;
83556;SDS011;73523;55.740;13.276;2024-02-26T02:41:45;1.60;;;1.23;;
83556;SDS011;73523;55.740;13.276;2024-02-26T02:44:11;1.60;;;1.30;;
83556;SDS011;73523;55.740;13.276;2024-02-26T02:46:36;1.70;;;1.40;;
83556;SDS011;73523;55.740;13.276;2024-02-26T02:49:02;1.40;;;1.20;;
83556;SDS011;73523;55.740;13.276;2024-02-26T02:51:27;1.80;;;1.10;;
83556;SDS011;73523;55.740;13.276;2024-02-26T02:53:53;1.53;;;1.20;;
83556;SDS011;73523;55.740;13.276;2024-02-26T02:56:18;2.13;;;1.20;;
83556;SDS011;73523;55.740;13.276;2024-02-26T02:58:44;1.65;;;1.33;;
83556;SDS011;73523;55.740;13.276;2024-02-26T03:01:09;1.67;;;1.10;;
83556;SDS011;73523;55.740;13.276;2024-02-26T03:03:35;1.40;;;1.30;;
83556;SDS011;73523;55.740;13.276;2024-02-26T03:06:01;1.45;;;0.98;;
83556;SDS011;73523;55.740;13.276;2024-02-26T03:08:27;1.42;;;1.05;;
83556;SDS011;73523;55.740;13.276;2024-02-26T03:10:52;1.60;;;1.17;;
83556;SDS011;73523;55.740;13.276;2024-02-26T03:13:18;1.15;;;0.98;;
83556;SDS011;73523;55.740;13.276;2024-02-26T03:15:43;1.80;;;1.30;;
83556;SDS011;73523;55.740;13.276;2024-02-26T03:18:09;1.85;;;1.20;;
83556;SDS011;73523;55.740;13.276;2024-02-26T03:20:34;1.67;;;1.23;;
83556;SDS011;73523;55.740;13.276;2024-02-26T03:22:59;1.70;;;1.20;;
83556;SDS011;73523;55.740;13.276;2024-02-26T03:25:25;2.00;;;1.30;;
83556;SDS011;73523;55.740;13.276;2024-02-26T03:27:50;1.90;;;1.20;;
83556;SDS011;73523;55.740;13.276;2024-02-26T03:30:15;2.10;;;1.40;;
83556;SDS011;73523;55.740;13.276;2024-02-26T03:32:41;2.10;;;1.20;;
83556;SDS011;73523;55.740;13.276;2024-02-26T03:35:06;1.67;;;1.20;;
83556;SDS011;73523;55.740;13.276;2024-02-26T03:37:33;1.55;;;1.10;;
83556;SDS011;73523;55.740;13.276;2024-02-26T03:39:58;2.00;;;1.30;;
83556;SDS011;73523;55.740;13.276;2024-02-26T03:42:23;1.90;;;0.90;;
83556;SDS011;73523;55.740;13.276;2024-02-26T03:44:49;1.23;;;1.10;;
83556;SDS011;73523;55.740;13.276;2024-02-26T03:47:15;1.93;;;1.20;;
83556;SDS011;73523;55.740;13.276;2024-02-26T03:49:41;1.85;;;1.10;;
83556;SDS011;73523;55.740;13.276;2024-02-26T03:52:06;1.50;;;1.20;;
83556;SDS011;73523;55.740;13.276;2024-02-26T03:54:32;2.23;;;1.13;;
83556;SDS011;73523;55.740;13.276;2024-02-26T03:56:57;1.80;;;1.37;;
83556;SDS011;73523;55.740;13.276;2024-02-26T03:59:22;1.30;;;1.20;;
83556;SDS011;73523;55.740;13.276;2024-02-26T04:01:49;1.38;;;1.20;;
83556;SDS011;73523;55.740;13.276;2024-02-26T04:04:15;1.67;;;1.17;;
83556;SDS011;73523;55.740;13.276;2024-02-26T04:06:44;1.52;;;1.23;;
83556;SDS011;73523;55.740;13.276;2024-02-26T04:09:13;1.20;;;1.07;;
83556;SDS011;73523;55.740;13.276;2024-02-26T04:11:39;1.48;;;1.10;;
83556;SDS011;73523;55.740;13.276;2024-02-26T04:14:05;1.70;;;1.30;;
83556;SDS011;73523;55.740;13.276;2024-02-26T04:16:33;1.50;;;1.20;;
83556;SDS011;73523;55.740;13.276;2024-02-26T04:18:59;1.70;;;1.17;;
83556;SDS011;73523;55.740;13.276;2024-02-26T04:21:24;1.47;;;1.10;;
83556;SDS011;73523;55.740;13.276;2024-02-26T04:23:49;1.47;;;1.00;;
83556;SDS011;73523;55.740;13.276;2024-02-26T04:26:14;1.92;;;1.30;;
83556;SDS011;73523;55.740;13.276;2024-02-26T04:28:40;1.70;;;1.17;;
83556;SDS011;73523;55.740;13.276;2024-02-26T04:31:06;1.90;;;1.20;;
83556;SDS011;73523;55.740;13.276;2024-02-26T04:33:33;1.30;;;0.90;;
83556;SDS011;73523;55.740;13.276;2024-02-26T04:35:59;1.70;;;1.00;;
83556;SDS011;73523;55.740;13.276;2024-02-26T04:38:25;1.53;;;1.20;;
83556;SDS011;73523;55.740;13.276;2024-02-26T04:40:51;1.17;;;1.08;;
83556;SDS011;73523;55.740;13.276;2024-02-26T04:43:16;1.63;;;1.20;;
83556;SDS011;73523;55.740;13.276;2024-02-26T04:45:43;1.30;;;0.88;;
83556;SDS011;73523;55.740;13.276;2024-02-26T04:48:08;1.60;;;1.17;;
83556;SDS011;73523;55.740;13.276;2024-02-26T04:50:33;1.40;;;1.07;;
83556;SDS011;73523;55.740;13.276;2024-02-26T04:52:59;1.70;;;1.10;;
83556;SDS011;73523;55.740;13.276;2024-02-26T04:55:24;1.73;;;1.03;;
83556;SDS011;73523;55.740;13.276;2024-02-26T04:57:50;1.77;;;1.10;;
83556;SDS011;73523;55.740;13.276;2024-02-26T05:00:15;1.60;;;1.10;;
83556;SDS011;73523;55.740;13.276;2024-02-26T05:02:40;1.40;;;1.00;;
83556;SDS011;73523;55.740;13.276;2024-02-26T05:05:06;1.50;;;1.07;;
83556;SDS011;73523;55.740;13.276;2024-02-26T05:07:33;1.38;;;1.10;;
83556;SDS011;73523;55.740;13.276;2024-02-26T05:09:58;2.05;;;1.10;;
83556;SDS011;73523;55.740;13.276;2024-02-26T05:12:24;1.43;;;1.10;;
83556;SDS011;73523;55.740;13.276;2024-02-26T05:14:49;1.77;;;1.00;;
83556;SDS011;73523;55.740;13.276;2024-02-26T05:17:15;2.03;;;1.20;;
83556;SDS011;73523;55.740;13.276;2024-02-26T05:19:40;1.80;;;1.10;;
83556;SDS011;73523;55.740;13.276;2024-02-26T05:22:05;1.27;;;0.90;;
83556;SDS011;73523;55.740;13.276;2024-02-26T05:24:31;1.93;;;1.30;;
83556;SDS011;73523;55.740;13.276;2024-02-26T05:26:56;1.63;;;1.07;;
83556;SDS011;73523;55.740;13.276;2024-02-26T05:29:21;1.77;;;1.00;;
83556;SDS011;73523;55.740;13.276;2024-02-26T05:31:46;1.27;;;1.00;;
83556;SDS011;73523;55.740;13.276;2024-02-26T05:34:12;1.30;;;0.97;;
83556;SDS011;73523;55.740;13.276;2024-02-26T05:36:37;2.00;;;1.20;;
83556;SDS011;73523;55.740;13.276;2024-02-26T05:39:03;1.70;;;1.10;;
83556;SDS011;73523;55.740;13.276;2024-02-26T05:41:29;1.40;;;1.03;;
83556;SDS011;73523;55.740;13.276;2024-02-26T05:43:54;2.10;;;0.80;;
83556;SDS011;73523;55.740;13.276;2024-02-26T05:46:20;2.17;;;0.90;;
83556;SDS011;73523;55.740;13.276;2024-02-26T05:48:46;2.65;;;0.80;;
83556;SDS011;73523;55.740;13.276;2024-02-26T05:51:13;2.50;;;0.98;;
83556;SDS011;73523;55.740;13.276;2024-02-26T05:53:38;1.40;;;1.10;;
83556;SDS011;73523;55.740;13.276;2024-02-26T05:56:03;2.35;;;1.00;;
83556;SDS011;73523;55.740;13.276;2024-02-26T05:58:29;2.60;;;1.27;;
83556;SDS011;73523;55.740;13.276;2024-02-26T06:00:54;1.40;;;0.97;;
83556;SDS011;73523;55.740;13.276;2024-02-26T06:03:20;2.50;;;1.10;;
83556;SDS011;73523;55.740;13.276;2024-02-26T06:05:45;1.70;;;1.20;;
83556;SDS011;73523;55.740;13.276;2024-02-26T06:08:11;1.70;;;1.03;;
83556;SDS011;73523;55.740;13.276;2024-02-26T06:10:36;1.42;;;1.02;;
83556;SDS011;73523;55.740;13.276;2024-02-26T06:13:01;2.00;;;0.93;;
83556;SDS011;73523;55.740;13.276;2024-02-26T06:15:27;1.63;;;1.00;;
83556;SDS011;73523;55.740;13.276;2024-02-26T06:17:52;1.63;;;0.98;;
83556;SDS011;73523;55.740;13.276;2024-02-26T06:20:17;1.60;;;1.00;;
83556;SDS011;73523;55.740;13.276;2024-02-26T06:22:43;1.60;;;1.20;;
83556;SDS011;73523;55.740;13.276;2024-02-26T06:25:08;1.20;;;1.00;;
83556;SDS011;73523;55.740;13.276;2024-02-26T06:27:34;1.37;;;0.93;;
83556;SDS011;73523;55.740;13.276;2024-02-26T06:30:00;1.80;;;1.00;;
83556;SDS011;73523;55.740;13.276;2024-02-26T06:32:25;1.40;;;0.90;;
83556;SDS011;73523;55.740;13.276;2024-02-26T06:34:53;1.55;;;1.02;;
83556;SDS011;73523;55.740;13.276;2024-02-26T06:37:18;2.38;;;0.70;;
83556;SDS011;73523;55.740;13.276;2024-02-26T06:39:43;1.47;;;1.17;;
83556;SDS011;73523;55.740;13.276;2024-02-26T06:42:09;1.37;;;1.00;;
83556;SDS011;73523;55.740;13.276;2024-02-26T06:44:34;1.98;;;1.05;;
83556;SDS011;73523;55.740;13.276;2024-02-26T06:47:00;1.53;;;1.00;;
83556;SDS011;73523;55.740;13.276;2024-02-26T06:49:26;1.55;;;0.85;;
83556;SDS011;73523;55.740;13.276;2024-02-26T06:51:52;2.40;;;1.27;;
83556;SDS011;73523;55.740;13.276;2024-02-26T06:54:17;1.20;;;0.93;;
83556;SDS011;73523;55.740;13.276;2024-02-26T06:56:43;1.70;;;1.00;;
83556;SDS011;73523;55.740;13.276;2024-02-26T06:59:08;1.83;;;1.00;;
83556;SDS011;73523;55.740;13.276;2024-02-26T07:01:33;1.97;;;1.10;;
83556;SDS011;73523;55.740;13.276;2024-02-26T07:03:58;2.40;;;1.20;;
83556;SDS011;73523;55.740;13.276;2024-02-26T07:06:24;2.33;;;0.90;;
83556;SDS011;73523;55.740;13.276;2024-02-26T07:08:50;1.57;;;1.00;;
83556;SDS011;73523;55.740;13.276;2024-02-26T07:11:15;2.03;;;1.00;;
83556;SDS011;73523;55.740;13.276;2024-02-26T07:13:40;1.30;;;0.90;;
83556;SDS011;73523;55.740;13.276;2024-02-26T07:16:06;1.30;;;0.80;;
83556;SDS011;73523;55.740;13.276;2024-02-26T07:18:33;1.52;;;1.00;;
83556;SDS011;73523;55.740;13.276;2024-02-26T07:21:01;2.10;;;1.00;;
83556;SDS011;73523;55.740;13.276;2024-02-26T07:23:27;0.90;;;0.80;;
83556;SDS011;73523;55.740;13.276;2024-02-26T07:25:52;1.67;;;1.10;;
83556;SDS011;73523;55.740;13.276;2024-02-26T07:28:18;1.70;;;0.80;;
83556;SDS011;73523;55.740;13.276;2024-02-26T07:30:43;2.20;;;0.85;;
83556;SDS011;73523;55.740;13.276;2024-02-26T07:33:09;2.17;;;1.00;;
83556;SDS011;73523;55.740;13.276;2024-02-26T07:35:34;2.10;;;1.00;;
83556;SDS011;73523;55.740;13.276;2024-02-26T07:38:01;3.80;;;1.25;;
83556;SDS011;73523;55.740;13.276;2024-02-26T07:40:26;3.03;;;1.13;;
83556;SDS011;73523;55.740;13.276;2024-02-26T07:42:52;2.13;;;1.13;;
83556;SDS011;73523;55.740;13.276;2024-02-26T07:45:17;3.20;;;1.10;;
83556;SDS011;73523;55.740;13.276;2024-02-26T07:47:45;3.13;;;1.10;;
83556;SDS011;73523;55.740;13.276;2024-02-26T07:50:11;2.03;;;1.10;;
83556;SDS011;73523;55.740;13.276;2024-02-26T07:52:37;2.00;;;1.03;;
83556;SDS011;73523;55.740;13.276;2024-02-26T07:55:02;1.93;;;1.00;;
83556;SDS011;73523;55.740;13.276;2024-02-26T07:57:28;1.70;;;0.90;;
83556;SDS011;73523;55.740;13.276;2024-02-26T07:59:53;2.53;;;1.00;;
83556;SDS011;73523;55.740;13.276;2024-02-26T08:02:19;2.15;;;1.25;;
83556;SDS011;73523;55.740;13.276;2024-02-26T08:04:44;3.80;;;1.10;;
83556;SDS011;73523;55.740;13.276;2024-02-26T08:07:10;2.97;;;1.23;;
83556;SDS011;73523;55.740;13.276;2024-02-26T08:09:35;3.43;;;1.10;;
83556;SDS011;73523;55.740;13.276;2024-02-26T08:12:00;2.40;;;1.00;;
83556;SDS011;73523;55.740;13.276;2024-02-26T08:14:26;1.70;;;1.07;;
83556;SDS011;73523;55.740;13.276;2024-02-26T08:16:51;1.47;;;0.87;;
83556;SDS011;73523;55.740;13.276;2024-02-26T08:19:16;1.80;;;0.90;;
83556;SDS011;73523;55.740;13.276;2024-02-26T08:21:42;2.20;;;1.13;;
83556;SDS011;73523;55.740;13.276;2024-02-26T08:24:08;1.63;;;0.90;;
83556;SDS011;73523;55.740;13.276;2024-02-26T08:26:33;1.85;;;1.00;;
83556;SDS011;73523;55.740;13.276;2024-02-26T08:28:59;1.77;;;0.97;;
83556;SDS011;73523;55.740;13.276;2024-02-26T08:31:24;2.10;;;0.93;;
83556;SDS011;73523;55.740;13.276;2024-02-26T08:33:49;1.30;;;0.77;;
83556;SDS011;73523;55.740;13.276;2024-02-26T08:36:15;1.50;;;0.90;;
83556;SDS011;73523;55.740;13.276;2024-02-26T08:38:40;1.48;;;1.00;;
83556;SDS011;73523;55.740;13.276;2024-02-26T08:41:06;1.50;;;0.90;;
83556;SDS011;73523;55.740;13.276;2024-02-26T08:43:31;1.30;;;0.60;;
83556;SDS011;73523;55.740;13.276;2024-02-26T08:45:57;1.70;;;1.00;;
83556;SDS011;73523;55.740;13.276;2024-02-26T08:48:22;1.97;;;0.80;;
83556;SDS011;73523;55.740;13.276;2024-02-26T08:50:48;1.45;;;0.88;;
83556;SDS011;73523;55.740;13.276;2024-02-26T08:53:13;1.37;;;0.80;;
83556;SDS011;73523;55.740;13.276;2024-02-26T08:55:38;2.83;;;1.00;;
83556;SDS011;73523;55.740;13.276;2024-02-26T08:58:04;2.13;;;1.10;;
83556;SDS011;73523;55.740;13.276;2024-02-26T09:00:29;2.13;;;0.93;;
83556;SDS011;73523;55.740;13.276;2024-02-26T09:02:55;2.10;;;0.93;;
83556;SDS011;73523;55.740;13.276;2024-02-26T09:05:21;1.80;;;0.87;;
83556;SDS011;73523;55.740;13.276;2024-02-26T09:07:46;1.73;;;1.00;;
83556;SDS011;73523;55.740;13.276;2024-02-26T09:10:11;1.87;;;0.87;;
83556;SDS011;73523;55.740;13.276;2024-02-26T09:12:37;2.07;;;0.97;;
83556;SDS011;73523;55.740;13.276;2024-02-26T09:15:05;1.27;;;0.90;;
83556;SDS011;73523;55.740;13.276;2024-02-26T09:17:31;2.15;;;0.88;;
83556;SDS011;73523;55.740;13.276;2024-02-26T09:19:56;1.10;;;0.80;;
83556;SDS011;73523;55.740;13.276;2024-02-26T09:22:22;1.30;;;0.83;;
83556;SDS011;73523;55.740;13.276;2024-02-26T09:24:47;1.70;;;0.90;;
83556;SDS011;73523;55.740;13.276;2024-02-26T09:27:14;1.30;;;0.85;;
83556;SDS011;73523;55.740;13.276;2024-02-26T09:29:40;1.23;;;0.90;;
83556;SDS011;73523;55.740;13.276;2024-02-26T09:32:05;0.80;;;0.70;;
83556;SDS011;73523;55.740;13.276;2024-02-26T09:34:31;1.15;;;0.80;;
83556;SDS011;73523;55.740;13.276;2024-02-26T09:36:56;1.43;;;0.87;;
83556;SDS011;73523;55.740;13.276;2024-02-26T09:39:21;1.50;;;1.00;;
83556;SDS011;73523;55.740;13.276;2024-02-26T09:41:49;1.43;;;0.80;;
83556;SDS011;73523;55.740;13.276;2024-02-26T09:44:15;1.20;;;0.90;;
83556;SDS011;73523;55.740;13.276;2024-02-26T09:46:45;1.35;;;0.75;;
83556;SDS011;73523;55.740;13.276;2024-02-26T09:49:12;1.30;;;0.80;;
83556;SDS011;73523;55.740;13.276;2024-02-26T09:51:40;1.50;;;0.90;;
83556;SDS011;73523;55.740;13.276;2024-02-26T09:54:05;0.98;;;0.63;;
83556;SDS011;73523;55.740;13.276;2024-02-26T09:56:32;1.20;;;0.73;;
83556;SDS011;73523;55.740;13.276;2024-02-26T09:58:58;0.90;;;0.70;;
83556;SDS011;73523;55.740;13.276;2024-02-26T10:01:25;1.20;;;0.65;;
83556;SDS011;73523;55.740;13.276;2024-02-26T10:03:52;1.40;;;0.90;;
83556;SDS011;73523;55.740;13.276;2024-02-26T10:06:21;2.10;;;0.70;;
83556;SDS011;73523;55.740;13.276;2024-02-26T10:08:47;1.40;;;0.80;;
83556;SDS011;73523;55.740;13.276;2024-02-26T10:11:13;1.30;;;0.70;;
83556;SDS011;73523;55.740;13.276;2024-02-26T10:13:39;1.20;;;0.80;;
83556;SDS011;73523;55.740;13.276;2024-02-26T10:16:06;1.07;;;0.80;;
83556;SDS011;73523;55.740;13.276;2024-02-26T10:18:48;1.40;;;0.70;;
83556;SDS011;73523;55.740;13.276;2024-02-26T10:21:21;0.98;;;0.80;;
83556;SDS011;73523;55.740;13.276;2024-02-26T10:23:47;1.02;;;0.63;;
83556;SDS011;73523;55.740;13.276;2024-02-26T10:26:13;0.98;;;0.80;;
83556;SDS011;73523;55.740;13.276;2024-02-26T10:28:41;1.30;;;0.80;;
83556;SDS011;73523;55.740;13.276;2024-02-26T10:31:07;1.30;;;0.50;;
83556;SDS011;73523;55.740;13.276;2024-02-26T10:33:34;1.30;;;0.60;;
83556;SDS011;73523;55.740;13.276;2024-02-26T10:36:01;0.57;;;0.47;;
83556;SDS011;73523;55.740;13.276;2024-02-26T10:38:27;1.15;;;0.75;;
83556;SDS011;73523;55.740;13.276;2024-02-26T10:40:54;0.73;;;0.52;;
83556;SDS011;73523;55.740;13.276;2024-02-26T10:43:19;0.60;;;0.60;;
83556;SDS011;73523;55.740;13.276;2024-02-26T10:45:44;0.80;;;0.57;;
83556;SDS011;73523;55.740;13.276;2024-02-26T10:48:12;0.80;;;0.60;;
83556;SDS011;73523;55.740;13.276;2024-02-26T10:50:38;1.20;;;0.65;;
83556;SDS011;73523;55.740;13.276;2024-02-26T10:53:05;0.70;;;0.50;;
83556;SDS011;73523;55.740;13.276;2024-02-26T10:55:37;0.63;;;0.60;;
83556;SDS011;73523;55.740;13.276;2024-02-26T10:58:04;0.82;;;0.63;;
83556;SDS011;73523;55.740;13.276;2024-02-26T11:00:32;1.27;;;0.68;;
83556;SDS011;73523;55.740;13.276;2024-02-26T11:02:57;0.80;;;0.60;;
83556;SDS011;73523;55.740;13.276;2024-02-26T11:05:26;1.40;;;0.70;;
83556;SDS011;73523;55.740;13.276;2024-02-26T11:07:53;1.13;;;0.80;;
83556;SDS011;73523;55.740;13.276;2024-02-26T11:10:19;0.80;;;0.60;;
83556;SDS011;73523;55.740;13.276;2024-02-26T11:12:45;1.08;;;0.77;;
83556;SDS011;73523;55.740;13.276;2024-02-26T11:15:11;0.35;;;0.35;;
83556;SDS011;73523;55.740;13.276;2024-02-26T11:17:37;0.80;;;0.50;;
83556;SDS011;73523;55.740;13.276;2024-02-26T11:20:03;1.00;;;0.60;;
83556;SDS011;73523;55.740;13.276;2024-02-26T11:22:30;0.90;;;0.60;;
83556;SDS011;73523;55.740;13.276;2024-02-26T11:24:57;0.90;;;0.60;;
83556;SDS011;73523;55.740;13.276;2024-02-26T11:27:24;0.73;;;0.57;;
83556;SDS011;73523;55.740;13.276;2024-02-26T11:29:55;1.08;;;0.63;;
83556;SDS011;73523;55.740;13.276;2024-02-26T11:32:24;0.80;;;0.60;;
83556;SDS011;73523;55.740;13.276;2024-02-26T11:34:51;1.17;;;0.60;;
83556;SDS011;73523;55.740;13.276;2024-02-26T11:37:17;0.87;;;0.60;;
83556;SDS011;73523;55.740;13.276;2024-02-26T11:39:42;1.60;;;0.60;;
83556;SDS011;73523;55.740;13.276;2024-02-26T11:42:10;0.90;;;0.60;;
83556;SDS011;73523;55.740;13.276;2024-02-26T11:44:39;0.98;;;0.63;;
83556;SDS011;73523;55.740;13.276;2024-02-26T11:47:10;0.90;;;0.60;;
83556;SDS011;73523;55.740;13.276;2024-02-26T11:49:39;1.00;;;0.60;;
83556;SDS011;73523;55.740;13.276;2024-02-26T11:52:05;0.80;;;0.50;;
83556;SDS011;73523;55.740;13.276;2024-02-26T11:54:40;0.60;;;0.47;;
83556;SDS011;73523;55.740;13.276;2024-02-26T12:05:05;0.70;;;0.50;;
83556;SDS011;73523;55.740;13.276;2024-02-26T12:07:34;1.20;;;0.45;;
83556;SDS011;73523;55.740;13.276;2024-02-26T12:10:15;0.77;;;0.60;;
83556;SDS011;73523;55.740;13.276;2024-02-26T12:13:00;0.90;;;0.73;;
83556;SDS011;73523;55.740;13.276;2024-02-26T12:15:32;0.68;;;0.47;;
83556;SDS011;73523;55.740;13.276;2024-02-26T12:18:02;0.50;;;0.50;;
83556;SDS011;73523;55.740;13.276;2024-02-26T12:20:29;0.60;;;0.43;;
83556;SDS011;73523;55.740;13.276;2024-02-26T12:22:55;0.52;;;0.50;;
83556;SDS011;73523;55.740;13.276;2024-02-26T12:25:22;1.08;;;0.60;;
83556;SDS011;73523;55.740;13.276;2024-02-26T12:27:49;0.77;;;0.47;;
83556;SDS011;73523;55.740;13.276;2024-02-26T12:30:14;0.60;;;0.40;;
83556;SDS011;73523;55.740;13.276;2024-02-26T12:32:39;0.73;;;0.70;;
83556;SDS011;73523;55.740;13.276;2024-02-26T12:35:05;0.70;;;0.50;;
83556;SDS011;73523;55.740;13.276;2024-02-26T12:37:31;0.57;;;0.40;;
83556;SDS011;73523;55.740;13.276;2024-02-26T12:39:57;0.60;;;0.47;;
83556;SDS011;73523;55.740;13.276;2024-02-26T12:42:22;0.70;;;0.50;;
83556;SDS011;73523;55.740;13.276;2024-02-26T12:44:49;0.70;;;0.50;;
83556;SDS011;73523;55.740;13.276;2024-02-26T12:47:15;2.40;;;0.50;;
83556;SDS011;73523;55.740;13.276;2024-02-26T12:49:50;0.52;;;0.40;;
83556;SDS011;73523;55.740;13.276;2024-02-26T12:52:16;0.85;;;0.40;;
83556;SDS011;73523;55.740;13.276;2024-02-26T12:54:42;1.00;;;0.65;;
83556;SDS011;73523;55.740;13.276;2024-02-26T12:57:09;0.43;;;0.40;;
83556;SDS011;73523;55.740;13.276;2024-02-26T12:59:34;0.50;;;0.43;;
83556;SDS011;73523;55.740;13.276;2024-02-26T13:02:01;0.80;;;0.60;;
83556;SDS011;73523;55.740;13.276;2024-02-26T13:04:28;0.75;;;0.50;;
83556;SDS011;73523;55.740;13.276;2024-02-26T13:06:55;1.60;;;0.60;;
83556;SDS011;73523;55.740;13.276;2024-02-26T13:09:20;1.00;;;0.50;;
83556;SDS011;73523;55.740;13.276;2024-02-26T13:11:53;0.50;;;0.47;;
83556;SDS011;73523;55.740;13.276;2024-02-26T13:14:21;0.60;;;0.40;;
83556;SDS011;73523;55.740;13.276;2024-02-26T13:16:55;1.20;;;0.60;;
83556;SDS011;73523;55.740;13.276;2024-02-26T13:19:21;0.90;;;0.50;;
83556;SDS011;73523;55.740;13.276;2024-02-26T13:21:47;0.60;;;0.57;;
83556;SDS011;73523;55.740;13.276;2024-02-26T13:24:13;0.50;;;0.43;;
83556;SDS011;73523;55.740;13.276;2024-02-26T13:26:38;0.45;;;0.30;;
83556;SDS011;73523;55.740;13.276;2024-02-26T13:29:04;0.57;;;0.57;;
83556;SDS011;73523;55.740;13.276;2024-02-26T13:31:30;0.60;;;0.32;;
83556;SDS011;73523;55.740;13.276;2024-02-26T13:33:55;0.43;;;0.33;;
83556;SDS011;73523;55.740;13.276;2024-02-26T13:36:21;0.73;;;0.50;;
83556;SDS011;73523;55.740;13.276;2024-02-26T13:38:54;0.77;;;0.40;;
83556;SDS011;73523;55.740;13.276;2024-02-26T13:41:20;0.50;;;0.43;;
83556;SDS011;73523;55.740;13.276;2024-02-26T13:43:48;0.80;;;0.40;;
83556;SDS011;73523;55.740;13.276;2024-02-26T13:46:15;0.98;;;0.40;;
83556;SDS011;73523;55.740;13.276;2024-02-26T13:48:41;1.00;;;0.60;;
83556;SDS011;73523;55.740;13.276;2024-02-26T13:51:07;0.40;;;0.30;;
83556;SDS011;73523;55.740;13.276;2024-02-26T13:53:32;0.40;;;0.37;;
83556;SDS011;73523;55.740;13.276;2024-02-26T13:55:57;0.57;;;0.32;;
83556;SDS011;73523;55.740;13.276;2024-02-26T13:58:25;0.47;;;0.40;;
83556;SDS011;73523;55.740;13.276;2024-02-26T14:00:52;0.45;;;0.30;;
83556;SDS011;73523;55.740;13.276;2024-02-26T14:03:19;0.60;;;0.40;;
83556;SDS011;73523;55.740;13.276;2024-02-26T14:05:45;0.55;;;0.32;;
83556;SDS011;73523;55.740;13.276;2024-02-26T14:08:10;0.47;;;0.30;;
83556;SDS011;73523;55.740;13.276;2024-02-26T14:10:36;0.63;;;0.50;;
83556;SDS011;73523;55.740;13.276;2024-02-26T14:13:02;0.57;;;0.30;;
83556;SDS011;73523;55.740;13.276;2024-02-26T14:15:28;0.40;;;0.30;;
83556;SDS011;73523;55.740;13.276;2024-02-26T14:17:53;1.10;;;0.33;;
83556;SDS011;73523;55.740;13.276;2024-02-26T14:20:22;0.70;;;0.40;;
83556;SDS011;73523;55.740;13.276;2024-02-26T14:22:49;0.90;;;0.30;;
83556;SDS011;73523;55.740;13.276;2024-02-26T14:25:16;0.35;;;0.20;;
83556;SDS011;73523;55.740;13.276;2024-02-26T14:27:42;0.63;;;0.40;;
83556;SDS011;73523;55.740;13.276;2024-02-26T14:30:07;0.60;;;0.30;;
83556;SDS011;73523;55.740;13.276;2024-02-26T14:32:33;0.38;;;0.25;;
83556;SDS011;73523;55.740;13.276;2024-02-26T14:35:00;0.40;;;0.30;;